Terminal Aerodrome Forecast
Issued by NWS Atlanta, GA

Home | Current Version | Previous Version | Text Only | Print | Product List | Glossary On
Versions: 1 2 3 4 5 6 7 8 9 10 11 12 13 14 15 16 17 18 19
000
FTUS42 KFFC 291121
TAFCSG
TAF
KCSG 291121Z 2912/3012 02005KT 6SM BR SCT010 OVC035
      TEMPO 2912/2915 4SM -RA BR BKN009
     FM291500 36005KT 6SM -RA BR OVC015
     FM291800 35006KT P6SM SCT015 OVC025
     FM292100 34005KT P6SM SCT020 BKN035
     FM300300 34003KT 6SM BR BKN012
     FM300600 00000KT 3SM BR OVC008=

USA.gov is the U.S. government's official web portal to all federal, state and local government web resources and services.